Inez, KY (41224)

12:55 PM EDT on July 25, 2014 (GMT -0400)
Big Sandy Reg AP, Prestonsbur (KSJS) Elev 1220 ft | 37.75 °N, 82.64 °W | Change Station

Current weather conditions updated 20 minutes ago

Mostly Cloudy
Mostly Cloudy
73 °F
Feels Like 73 °F
N
0
Wind Variable Wind from North

Today is forecast to be Much Warmer than yesterday.

Today
High -- | Low -- °F
--% Chance of Precip.
Yesterday
High -- | Low -- °F
Precip. -- in
6:27 AM 8:45 PM
Waning Crescent, 1% visible
Pressure 30.11 in
Visibility 10.0 miles
Clouds Scattered Clouds 2500 ft
Scattered Clouds 3000 ft
Dew Point 60 °F
Humidity 64%
Rainfall 0.00 in
Snow Depth Not available.
UV 9 out of 12
Pollen 4.40 out of 12
Air Quality Not available.
Flu Activity Not available.
METAR KSJS 251635Z AUTO 00000KT 10SM SCT025 SCT030 23/16 A3011 RMK AO2 T02290157

More Conditions Fewer Conditions

Pressure 30.11 in
Visibility 10.0 miles
Clouds Scattered Clouds 2500 ft
Scattered Clouds 3000 ft
Dew Point 60 °F
Humidity 64%
Rainfall 0.00 in
Snow Depth Not available.
UV 9 out of 12
Pollen 4.40 out of 12
Air Quality Not available.
Flu Activity Not available.
METAR KSJS 251635Z AUTO 00000KT 10SM SCT025 SCT030 23/16 A3011 RMK AO2 T02290157

More Conditions Fewer Conditions

10-Day Weather Forecast

Almanac

Astronomy

Jul. 25, 2014 Rise Set
Actual Time 6:27 AM EDT 8:45 PM EDT
Civil Twilight 5:57 AM EDT 9:14 PM EDT
Nautical Twilight 5:21 AM EDT 9:51 PM EDT
Astronomical Twilight 4:41 AM EDT 10:31 PM EDT
Moon 5:25 AM EDT 7:42 PM EDT
Length of Visible Light 15h 16m
Length of Day
14h 17m
Tomorrow will be 1m 38s shorter.
Waning Crescent, 1% of the Moon is Illuminated
Today
Waning Crescent
Jul 26
New
Aug 3
First Quarter
Aug 10
Full
Aug 17
Last Quarter

Today's Extremes

State Highs State Lows

Community

WunderPhotos

Upload Photos

1,737,363 photos uploaded!

WunderBlogs® & News

Nearby

Snow Depth

Station Depth Elevation
No new snow has been reported.

Earthquake Activity

City Distance Mag. Time & Date
No recent earthquake activity has been reported nearby.
Minimum magnitude displayed is 2.5.

Coastal Water Temperatures

Place Temperature
No Stations Reporting

Nearby Weather Stations

Station Location Temp. Heat Index Dew Point Humidity Wind Precip. Elev Updated Type
Paintsville, KY, Paintsville, KY 73.3 °F 76 °F 61 °F 65% ESE  at  1.0 mph 0.00 in / hr 620 ft 12:42 PM EDT Normal
West Williamson, WV, Williamson, WV 80.2 °F 81 °F 60 °F 50% SE  at  0.0 mph 0.00 in / hr 682 ft 12:55 PM EDT Rapid Fire
Middle Creek Battlefield Area, Prestonsburg, KY 71.6 °F 74 °F 62 °F 71% North  at  0.0 mph 0.00 in / hr 728 ft 12:55 PM EDT Rapid Fire
Middle Creek VFD Station 2, Prestonsburg, KY 77.5 °F 79 °F 65 °F 66% North  at  0.0 mph - / hr 689 ft 12:55 PM EDT Normal
Quail Ridge, Pikeville, KY 77.8 °F 79 °F 63 °F 60% ESE  at  2.0 mph 0.00 in / hr 778 ft 12:55 PM EDT Rapid Fire
Ratliff Creek, Pikeville, KY 73.0 °F 75 °F 64 °F 72% North  at  0.0 mph 0.00 in / hr 699 ft 12:55 PM EDT Normal

Show More Stations Show Fewer Stations